createdAt,value
2022-10-25T00:00:53.013Z,99334.48
2022-10-25T00:04:05.848Z,99331.41
2022-10-25T00:07:07.610Z,99327.52
2022-10-25T00:10:10.070Z,99329.73
2022-10-25T00:13:11.815Z,99332.19
2022-10-25T00:16:15.568Z,99336.25
2022-10-25T00:19:17.435Z,99334.51
2022-10-25T00:22:19.223Z,99336.27
2022-10-25T00:25:21.046Z,99340.79
2022-10-25T00:28:22.788Z,99334.21
2022-10-25T00:31:25.140Z,99330.83
2022-10-25T00:34:26.918Z,99330.17
2022-10-25T00:37:28.646Z,99329.14
2022-10-25T00:40:30.372Z,99322.08
2022-10-25T00:43:36.445Z,99327.80
2022-10-25T00:46:38.284Z,99324.41
2022-10-25T00:49:41.340Z,99326.48
2022-10-25T00:52:44.157Z,99332.59
2022-10-25T00:55:49.306Z,99335.22
2022-10-25T00:58:53.667Z,99336.04
2022-10-25T01:01:56.128Z,99324.31
2022-10-25T01:04:58.290Z,99322.14
2022-10-25T01:08:00.048Z,99319.02
2022-10-25T01:11:01.909Z,99317.73
2022-10-25T01:14:08.027Z,99323.36
2022-10-25T01:17:21.750Z,99331.24
2022-10-25T01:20:32.347Z,99333.47
2022-10-25T01:23:55.947Z,99340.70
2022-10-25T01:27:12.029Z,99345.09
2022-10-25T01:30:45.409Z,99331.29
2022-10-25T01:34:11.720Z,99322.42
2022-10-25T01:37:36.859Z,99324.67
2022-10-25T01:40:41.254Z,99326.27
2022-10-25T01:44:04.759Z,99325.20
2022-10-25T01:47:18.083Z,99332.20
2022-10-25T01:50:27.037Z,99335.16
2022-10-25T01:53:28.733Z,99341.78
2022-10-25T01:56:33.915Z,99343.42
2022-10-25T02:00:03.324Z,99339.61
2022-10-25T02:03:15.274Z,99340.04
2022-10-25T02:06:36.509Z,99341.80
2022-10-25T02:09:48.143Z,99339.21
2022-10-25T02:12:57.104Z,99342.87
2022-10-25T02:16:03.454Z,99345.46
2022-10-25T02:19:07.855Z,99340.50
2022-10-25T02:22:10.774Z,99336.61
2022-10-25T02:25:13.189Z,99335.67
2022-10-25T02:28:16.447Z,99338.35
2022-10-25T02:31:20.086Z,99341.95
2022-10-25T02:34:22.195Z,99342.24
2022-10-25T02:37:27.292Z,99340.09
2022-10-25T02:40:29.516Z,99337.95
2022-10-25T02:43:31.730Z,99339.64
2022-10-25T02:46:36.463Z,99344.11
2022-10-25T02:49:38.292Z,99347.56
2022-10-25T02:52:40.163Z,99343.79
2022-10-25T02:55:42.102Z,99340.58
2022-10-25T02:58:44.833Z,99342.11
2022-10-25T03:01:47.331Z,99342.36
2022-10-25T03:04:49.171Z,99338.84
2022-10-25T03:07:50.981Z,99334.93
2022-10-25T03:10:53.147Z,99336.86
2022-10-25T03:13:55.155Z,99341.47
2022-10-25T03:16:56.918Z,99338.45
2022-10-25T03:19:58.752Z,99336.63
2022-10-25T03:23:00.928Z,99329.66
2022-10-25T03:26:02.888Z,99331.95
2022-10-25T03:29:04.799Z,99328.02
2022-10-25T03:32:07.884Z,99328.34
2022-10-25T03:35:09.776Z,99324.45
2022-10-25T03:38:11.659Z,99325.45
2022-10-25T03:41:15.898Z,99324.00
2022-10-25T03:44:17.755Z,99330.41
2022-10-25T03:47:19.600Z,99331.98
2022-10-25T03:50:21.414Z,99335.71
2022-10-25T03:53:23.213Z,99336.11
2022-10-25T03:56:24.966Z,99339.52
2022-10-25T03:59:27.542Z,99341.11
2022-10-25T04:02:29.433Z,99341.84
2022-10-25T04:05:31.917Z,99341.15
2022-10-25T04:08:34.027Z,99339.95
2022-10-25T04:11:35.886Z,99345.27
2022-10-25T04:14:37.694Z,99356.83
2022-10-25T04:17:39.771Z,99356.00
2022-10-25T04:20:41.472Z,99351.97
2022-10-25T04:23:43.302Z,99356.59
2022-10-25T04:26:45.243Z,99361.50
2022-10-25T04:29:47.014Z,99360.08
2022-10-25T04:32:49.459Z,99359.52
2022-10-25T04:35:56.609Z,99357.48
2022-10-25T04:38:58.427Z,99353.91
2022-10-25T04:42:00.266Z,99351.70
2022-10-25T04:45:02.314Z,99353.93
2022-10-25T04:48:04.228Z,99358.59
2022-10-25T04:51:06.588Z,99353.63
2022-10-25T04:54:08.383Z,99350.11
2022-10-25T04:57:10.216Z,99353.46
2022-10-25T05:00:12.547Z,99353.89
2022-10-25T05:03:14.346Z,99352.97
2022-10-25T05:06:22.316Z,99352.08
2022-10-25T05:09:24.249Z,99357.14
2022-10-25T05:12:26.008Z,99357.55
2022-10-25T05:15:27.879Z,99362.23
2022-10-25T05:18:30.883Z,99364.08
2022-10-25T05:21:32.667Z,99367.36
2022-10-25T05:24:34.682Z,99372.65
2022-10-25T05:27:39.617Z,99374.64
2022-10-25T05:30:44.042Z,99377.06
2022-10-25T05:33:46.761Z,99373.98
2022-10-25T05:36:48.591Z,99368.30
2022-10-25T05:39:50.389Z,99362.92
2022-10-25T05:42:53.631Z,99361.30
2022-10-25T05:46:07.273Z,99368.48
2022-10-25T05:49:09.887Z,99370.56
2022-10-25T05:52:12.410Z,99373.47
2022-10-25T05:55:14.499Z,99373.90
2022-10-25T05:58:16.313Z,99377.80
2022-10-25T06:01:20.910Z,99378.58
2022-10-25T06:04:23.242Z,99378.34
2022-10-25T06:07:25.113Z,99381.52
2022-10-25T06:10:26.925Z,99393.04
2022-10-25T06:13:28.856Z,99395.93
2022-10-25T06:16:30.777Z,99404.04
2022-10-25T06:19:32.539Z,99406.50
2022-10-25T06:22:34.242Z,99405.39
2022-10-25T06:25:36.027Z,99412.42
2022-10-25T06:28:38.397Z,99414.39
2022-10-25T06:31:41.692Z,99420.34
2022-10-25T06:34:43.474Z,99425.00
2022-10-25T06:37:45.203Z,99423.84
2022-10-25T06:40:46.931Z,99422.56
2022-10-25T06:43:49.608Z,99422.39
2022-10-25T06:47:15.953Z,99419.95
2022-10-25T06:50:13.585Z,99423.95
2022-10-25T06:53:15.410Z,99426.23
2022-10-25T06:56:17.250Z,99427.29
2022-10-25T06:59:20.698Z,99422.83
2022-10-25T07:02:22.601Z,99431.27
2022-10-25T07:05:25.389Z,99435.69
2022-10-25T07:08:27.229Z,99444.71
2022-10-25T07:11:31.193Z,99452.08
2022-10-25T07:14:33.018Z,99458.48
2022-10-25T07:17:34.971Z,99460.20
2022-10-25T07:20:36.802Z,99463.92
2022-10-25T07:23:42.542Z,99464.44
2022-10-25T07:26:44.532Z,99472.19
2022-10-25T07:29:46.469Z,99476.00
2022-10-25T07:32:48.280Z,99484.44
2022-10-25T07:36:09.982Z,99485.14
2022-10-25T07:39:12.678Z,99484.48
2022-10-25T07:42:14.593Z,99484.80
2022-10-25T07:45:18.756Z,99478.17
2022-10-25T07:48:24.509Z,99466.95
2022-10-25T07:51:26.289Z,99452.91
2022-10-25T07:54:28.027Z,99443.92
2022-10-25T07:57:30.401Z,99440.40
2022-10-25T08:00:32.539Z,99437.09
2022-10-25T08:03:34.647Z,99437.04
2022-10-25T08:06:36.545Z,99434.77
2022-10-25T08:09:38.880Z,99436.48
2022-10-25T08:12:41.225Z,99433.42
2022-10-25T08:15:52.695Z,99433.73
2022-10-25T08:18:54.430Z,99435.44
2022-10-25T08:21:56.368Z,99434.79
2022-10-25T08:24:58.109Z,99435.92
2022-10-25T08:27:59.847Z,99429.77
2022-10-25T08:31:02.143Z,99426.31
2022-10-25T08:34:04.189Z,99422.27
2022-10-25T08:37:05.950Z,99421.06
2022-10-25T08:40:13.315Z,99416.27
2022-10-25T08:43:25.777Z,99417.02
2022-10-25T08:46:37.807Z,99408.02
2022-10-25T08:49:39.754Z,99406.89
2022-10-25T08:52:48.148Z,99411.14
2022-10-25T08:56:11.620Z,99409.83
2022-10-25T08:59:17.604Z,99411.99
2022-10-25T09:02:28.566Z,99415.95
2022-10-25T09:05:47.856Z,99422.80
2022-10-25T09:08:55.831Z,99430.65
2022-10-25T09:12:19.189Z,99430.10
2022-10-25T09:15:43.998Z,99433.21
2022-10-25T09:18:50.286Z,99438.22
2022-10-25T09:22:10.544Z,99444.42
2022-10-25T09:25:47.532Z,99450.33
2022-10-25T09:28:55.292Z,99453.80
2022-10-25T09:32:00.913Z,99456.09
2022-10-25T09:35:04.766Z,99458.71
2022-10-25T09:38:26.514Z,99464.52
2022-10-25T09:41:47.263Z,99463.80
2022-10-25T09:44:53.564Z,99462.38
2022-10-25T09:48:01.223Z,99465.11
2022-10-25T09:51:22.536Z,99465.47
2022-10-25T09:54:29.046Z,99465.28
2022-10-25T09:57:30.867Z,99465.05
2022-10-25T10:00:33.915Z,99465.19
2022-10-25T10:03:36.648Z,99465.35
2022-10-25T10:06:39.224Z,99468.70
2022-10-25T10:09:45.772Z,99471.08
2022-10-25T10:12:56.942Z,99471.66
2022-10-25T10:16:02.475Z,99469.76
2022-10-25T10:19:22.082Z,99467.91
2022-10-25T10:22:23.797Z,99463.92
2022-10-25T10:25:28.665Z,99467.64
2022-10-25T10:28:31.304Z,99468.11
2022-10-25T10:31:38.448Z,99473.83
2022-10-25T10:34:44.415Z,99473.12
2022-10-25T10:37:46.425Z,99471.92
2022-10-25T10:40:51.638Z,99477.29
2022-10-25T10:44:13.568Z,99483.23
2022-10-25T10:47:20.622Z,99481.30
2022-10-25T10:50:28.751Z,99486.23
2022-10-25T10:53:32.951Z,99485.15
2022-10-25T10:56:35.248Z,99490.38
2022-10-25T10:59:52.091Z,99482.33
2022-10-25T11:05:56.111Z,99489.31
2022-10-25T11:09:24.985Z,99487.59
2022-10-25T11:12:26.820Z,99486.98
2022-10-25T11:15:30.118Z,99487.71
2022-10-25T11:18:53.943Z,99485.45
2022-10-25T11:22:10.483Z,99481.77
2022-10-25T11:25:12.132Z,99481.25
2022-10-25T11:28:41.738Z,99478.29
2022-10-25T11:32:04.759Z,99485.05
2022-10-25T11:35:19.619Z,99488.72
2022-10-25T11:38:43.235Z,99490.06
2022-10-25T11:41:47.948Z,99485.10
2022-10-25T11:45:13.241Z,99491.98
2022-10-25T11:48:24.070Z,99491.39
2022-10-25T11:52:04.055Z,99497.94
2022-10-25T11:55:29.799Z,99501.30
2022-10-25T11:58:40.748Z,99498.90
2022-10-25T12:02:00.400Z,99495.02
2022-10-25T12:05:22.008Z,99494.21
2022-10-25T12:08:41.495Z,99487.19
2022-10-25T12:11:47.241Z,99486.25
2022-10-25T12:14:52.107Z,99486.57
2022-10-25T12:17:54.164Z,99479.69
2022-10-25T12:20:56.235Z,99477.11
2022-10-25T12:23:58.550Z,99473.23
2022-10-25T12:27:00.473Z,99467.23
2022-10-25T12:30:10.613Z,99467.68
2022-10-25T12:33:27.864Z,99471.12
2022-10-25T12:36:36.809Z,99473.21
2022-10-25T12:39:43.141Z,99469.73
2022-10-25T12:42:47.247Z,99471.38
2022-10-25T12:46:10.181Z,99474.25
2022-10-25T12:49:27.272Z,99474.54
2022-10-25T12:53:01.100Z,99472.11
2022-10-25T12:56:33.753Z,99472.52
2022-10-25T12:59:41.981Z,99477.27
2022-10-25T13:03:02.439Z,99480.27
2022-10-25T13:06:16.456Z,99484.11
2022-10-25T13:09:23.395Z,99482.93
2022-10-25T13:12:32.119Z,99476.54
2022-10-25T13:15:46.096Z,99481.14
2022-10-25T13:18:48.118Z,99480.43
2022-10-25T13:21:53.399Z,99484.59
2022-10-25T13:24:56.323Z,99482.52
2022-10-25T13:28:35.260Z,99485.54
2022-10-25T13:31:37.891Z,99481.48
2022-10-25T13:34:39.762Z,99480.95
2022-10-25T13:37:43.163Z,99481.14
2022-10-25T13:41:04.967Z,99479.45
2022-10-25T13:44:06.817Z,99478.48
2022-10-25T13:47:28.941Z,99481.03
2022-10-25T13:50:36.044Z,99485.59
2022-10-25T13:53:49.260Z,99486.19
2022-10-25T13:56:52.760Z,99487.75
2022-10-25T13:59:54.407Z,99493.85
2022-10-25T14:03:06.004Z,99496.77
2022-10-25T14:06:17.565Z,99499.48
2022-10-25T14:09:34.768Z,99497.66
2022-10-25T14:12:36.751Z,99501.69
2022-10-25T14:15:46.130Z,99500.67
2022-10-25T14:18:49.756Z,99505.13
2022-10-25T14:21:52.796Z,99510.30
2022-10-25T14:24:55.041Z,99510.80
2022-10-25T14:28:06.061Z,99510.17
2022-10-25T14:31:07.947Z,99517.82
2022-10-25T14:34:21.520Z,99517.92
2022-10-25T14:37:23.309Z,99515.59
2022-10-25T14:40:29.071Z,99516.52
2022-10-25T14:43:33.874Z,99517.71
2022-10-25T14:46:35.498Z,99512.95
2022-10-25T14:49:37.272Z,99514.39
2022-10-25T14:52:38.961Z,99517.64
2022-10-25T14:55:40.606Z,99518.41
2022-10-25T14:58:43.305Z,99515.65
2022-10-25T15:01:54.636Z,99513.41
2022-10-25T15:04:58.616Z,99516.45
2022-10-25T15:08:00.712Z,99507.14
2022-10-25T15:11:05.513Z,99507.02
2022-10-25T15:14:20.963Z,99517.20
2022-10-25T15:17:22.603Z,99524.95
2022-10-25T15:20:29.632Z,99529.19
2022-10-25T15:23:31.615Z,99537.52
2022-10-25T15:26:38.256Z,99535.75
2022-10-25T15:29:40.733Z,99534.17
2022-10-25T15:32:42.367Z,99540.40
2022-10-25T15:35:51.977Z,99543.41
2022-10-25T15:39:10.491Z,99548.58
2022-10-25T15:42:16.397Z,99555.69
2022-10-25T15:45:17.989Z,99561.95
2022-10-25T15:48:22.026Z,99563.56
2022-10-25T15:51:25.252Z,99561.31
2022-10-25T15:54:29.704Z,99561.07
2022-10-25T15:57:31.277Z,99559.06
2022-10-25T16:00:33.142Z,99562.80
2022-10-25T16:03:34.753Z,99571.54
2022-10-25T16:06:36.506Z,99570.23
2022-10-25T16:09:38.133Z,99570.45
2022-10-25T16:12:39.980Z,99574.85
2022-10-25T16:15:42.663Z,99578.86
2022-10-25T16:18:44.548Z,99574.61
2022-10-25T16:21:46.286Z,99576.98
2022-10-25T16:24:48.015Z,99581.73
2022-10-25T16:27:49.791Z,99581.05
2022-10-25T16:30:51.478Z,99585.09
2022-10-25T16:33:53.147Z,99582.87
2022-10-25T16:36:55.224Z,99589.77
2022-10-25T16:39:56.806Z,99585.58
2022-10-25T16:42:58.554Z,99593.01
2022-10-25T16:46:00.185Z,99591.71
2022-10-25T16:49:02.994Z,99596.96
2022-10-25T16:52:06.158Z,99602.34
2022-10-25T16:55:08.400Z,99600.79
2022-10-25T16:58:10.286Z,99599.87
2022-10-25T17:01:20.693Z,99599.50
2022-10-25T17:04:23.542Z,99604.40
2022-10-25T17:07:25.164Z,99601.63
2022-10-25T17:10:27.267Z,99593.36
2022-10-25T17:13:28.987Z,99596.80
2022-10-25T17:16:30.849Z,99595.98
2022-10-25T17:19:32.455Z,99600.00
2022-10-25T17:22:35.081Z,99605.41
2022-10-25T17:25:36.925Z,99610.52
2022-10-25T17:28:43.131Z,99609.95
2022-10-25T17:31:46.160Z,99612.70
2022-10-25T17:34:47.892Z,99612.92
2022-10-25T17:37:55.925Z,99614.20
2022-10-25T17:40:57.573Z,99614.73
2022-10-25T17:43:59.212Z,99617.80
2022-10-25T17:47:03.096Z,99614.08
2022-10-25T17:50:05.407Z,99614.89
2022-10-25T17:53:08.779Z,99622.80
2022-10-25T17:56:17.239Z,99624.12
2022-10-25T17:59:18.991Z,99625.16
2022-10-25T18:02:20.907Z,99626.14
2022-10-25T18:05:22.938Z,99623.74
2022-10-25T18:08:24.827Z,99628.61
2022-10-25T18:11:28.217Z,99632.63
2022-10-25T18:14:29.960Z,99634.55
2022-10-25T18:17:31.794Z,99636.96
2022-10-25T18:20:33.581Z,99641.80
2022-10-25T18:23:35.880Z,99646.15
2022-10-25T18:26:37.590Z,99646.23
2022-10-25T18:29:39.988Z,99645.49
2022-10-25T18:32:41.775Z,99648.24
2022-10-25T18:35:43.385Z,99648.23
2022-10-25T18:38:45.930Z,99647.23
2022-10-25T18:41:48.856Z,99644.77
2022-10-25T18:44:51.701Z,99648.95
2022-10-25T18:47:54.009Z,99646.63
2022-10-25T18:50:55.990Z,99647.09
2022-10-25T18:53:59.899Z,99649.61
2022-10-25T18:57:01.607Z,99650.34
2022-10-25T19:00:04.987Z,99651.16
2022-10-25T19:03:07.961Z,99653.86
2022-10-25T19:06:10.572Z,99654.69
2022-10-25T19:09:14.467Z,99659.05
2022-10-25T19:12:16.537Z,99664.02
2022-10-25T19:15:18.257Z,99667.08
2022-10-25T19:18:20.051Z,99671.63
2022-10-25T19:21:22.046Z,99677.49
2022-10-25T19:24:24.049Z,99678.94
2022-10-25T19:27:25.885Z,99679.86
2022-10-25T19:30:27.583Z,99684.02
2022-10-25T19:33:31.352Z,99688.20
2022-10-25T19:36:33.094Z,99690.80
2022-10-25T19:39:36.001Z,99697.66
2022-10-25T19:42:38.115Z,99698.27
2022-10-25T19:45:43.164Z,99698.20
2022-10-25T19:48:45.133Z,99701.00
2022-10-25T19:51:46.920Z,99701.31
2022-10-25T19:54:48.873Z,99699.82
2022-10-25T19:57:51.559Z,99699.75
2022-10-25T20:01:01.417Z,99700.27
2022-10-25T20:04:03.329Z,99701.46
2022-10-25T20:07:05.277Z,99701.83
2022-10-25T20:10:07.156Z,99704.30
2022-10-25T20:13:08.758Z,99702.20
2022-10-25T20:16:11.010Z,99704.70
2022-10-25T20:19:13.776Z,99699.68
2022-10-25T20:22:16.747Z,99696.63
2022-10-25T20:25:18.405Z,99696.06
2022-10-25T20:28:20.091Z,99700.91
2022-10-25T20:31:23.112Z,99709.16
2022-10-25T20:34:24.860Z,99711.64
2022-10-25T20:37:26.663Z,99705.87
2022-10-25T20:40:28.336Z,99701.86
2022-10-25T20:43:30.012Z,99702.16
2022-10-25T20:46:33.098Z,99700.27
2022-10-25T20:49:35.013Z,99705.93
2022-10-25T20:52:39.753Z,99710.20
2022-10-25T20:55:52.534Z,99711.39
2022-10-25T20:58:54.157Z,99710.30
2022-10-25T21:01:56.027Z,99715.80
2022-10-25T21:04:57.879Z,99715.70
2022-10-25T21:08:00.907Z,99714.77
2022-10-25T21:11:04.573Z,99716.01
2022-10-25T21:14:06.725Z,99717.84
2022-10-25T21:17:08.606Z,99718.73
2022-10-25T21:20:10.674Z,99716.40
2022-10-25T21:23:12.925Z,99715.05
2022-10-25T21:26:14.693Z,99717.17
2022-10-25T21:29:16.687Z,99717.05
2022-10-25T21:32:18.332Z,99715.60
2022-10-25T21:35:20.842Z,99718.39
2022-10-25T21:38:22.487Z,99720.25
2022-10-25T21:41:27.291Z,99718.98
2022-10-25T21:44:29.395Z,99716.17
2022-10-25T21:47:31.080Z,99719.20
2022-10-25T21:50:32.684Z,99719.10
2022-10-25T21:53:34.516Z,99723.38
2022-10-25T21:56:36.259Z,99722.64
2022-10-25T21:59:37.941Z,99722.09
2022-10-25T22:02:39.830Z,99720.70
2022-10-25T22:05:44.822Z,99718.75
2022-10-25T22:08:47.340Z,99714.57
2022-10-25T22:11:52.348Z,99713.86
2022-10-25T22:14:54.285Z,99716.91
2022-10-25T22:17:56.036Z,99718.19
2022-10-25T22:21:00.466Z,99724.17
2022-10-25T22:24:02.807Z,99728.88
2022-10-25T22:27:04.604Z,99730.92
2022-10-25T22:30:07.024Z,99732.06
2022-10-25T22:33:08.699Z,99734.27
2022-10-25T22:36:18.033Z,99734.42
2022-10-25T22:39:19.910Z,99734.80
2022-10-25T22:42:22.118Z,99734.23
2022-10-25T22:45:23.877Z,99737.27
2022-10-25T22:48:30.100Z,99739.95
2022-10-25T22:51:31.994Z,99738.28
2022-10-25T22:54:33.635Z,99734.47
2022-10-25T22:57:35.264Z,99734.63
2022-10-25T23:00:36.985Z,99738.06
2022-10-25T23:03:40.624Z,99738.18
2022-10-25T23:07:02.201Z,99740.84
2022-10-25T23:10:19.029Z,99744.43
2022-10-25T23:13:20.851Z,99743.23
2022-10-25T23:16:22.507Z,99746.88
2022-10-25T23:19:24.102Z,99745.18
2022-10-25T23:22:25.776Z,99745.83
2022-10-25T23:25:27.533Z,99748.09
2022-10-25T23:28:33.064Z,99740.90
2022-10-25T23:31:35.000Z,99742.51
2022-10-25T23:34:38.787Z,99748.05
2022-10-25T23:37:41.066Z,99750.53
2022-10-25T23:40:46.154Z,99752.91
2022-10-25T23:43:48.145Z,99752.02
2022-10-25T23:46:50.248Z,99753.73
2022-10-25T23:49:52.262Z,99753.75
2022-10-25T23:52:53.930Z,99755.48
2022-10-25T23:55:56.305Z,99756.65
2022-10-25T23:58:57.891Z,99755.29
